Time;durP1;ratioP1;P1;durP2;ratioP2;P2;SDS_P1;SDS_P2;PMS_P1;PMS_P2;Temp;Humidity;BMP_temperature;BMP_pressure;BME280_temperature;BME280_humidity;BME280_pressure;Samples;Min_cycle;Max_cycle;Signal;HPM_P1;HPM_P2
2022/02/12 00:00:32;;;;;;;7.10;3.60;;;;;;;4.57;59.65;97133.97;5061518;28;20198;-84
2022/02/12 00:02:58;;;;;;;5.17;3.43;;;;;;;4.55;59.04;97140.91;5061543;28;20207;-84
2022/02/12 00:05:26;;;;;;;5.93;3.50;;;;;;;4.50;59.37;97137.84;5060155;28;20217;-84
2022/02/12 00:07:57;;;;;;;5.33;3.53;;;;;;;4.53;59.44;97144.47;5061981;28;20328;-84
2022/02/12 00:10:24;;;;;;;3.40;3.10;;;;;;;4.47;59.20;97130.38;5061098;28;20198;-84
2022/02/12 00:12:51;;;;;;;5.07;3.40;;;;;;;4.46;59.15;97133.84;5060861;28;20193;-84
2022/02/12 00:15:18;;;;;;;4.97;3.57;;;;;;;4.43;59.39;97139.97;5061074;28;20233;-84
2022/02/12 00:17:45;;;;;;;5.43;3.40;;;;;;;4.38;59.58;97133.56;5060406;28;20194;-84
2022/02/12 00:20:14;;;;;;;8.10;3.33;;;;;;;4.38;59.70;97136.94;5060891;28;20190;-84
2022/02/12 00:22:41;;;;;;;5.00;3.17;;;;;;;4.38;59.85;97129.28;5060990;28;20252;-84
2022/02/12 00:25:09;;;;;;;6.43;3.40;;;;;;;4.41;59.43;97135.91;5060715;28;20225;-84
2022/02/12 00:27:36;;;;;;;5.70;3.33;;;;;;;4.44;59.63;97130.59;5062072;28;20197;-84
2022/02/12 00:30:03;;;;;;;5.97;3.37;;;;;;;4.40;59.81;97130.00;5062271;28;20213;-84
2022/02/12 00:32:29;;;;;;;4.73;3.17;;;;;;;4.34;59.41;97116.81;5059875;28;20379;-84
2022/02/12 00:34:56;;;;;;;3.70;2.97;;;;;;;4.31;59.92;97117.84;5059897;28;20221;-84
2022/02/12 00:37:24;;;;;;;3.93;2.93;;;;;;;4.29;60.10;97106.91;5060980;28;20551;-84
2022/02/12 00:39:50;;;;;;;3.40;2.90;;;;;;;4.08;60.67;97121.88;5060458;28;20244;-85
2022/02/12 00:42:19;;;;;;;3.47;2.80;;;;;;;4.04;60.99;97128.06;5061069;28;20194;-84
2022/02/12 00:44:45;;;;;;;5.33;3.13;;;;;;;3.96;60.79;97117.56;5059379;28;20228;-84
2022/02/12 00:47:12;;;;;;;4.70;3.07;;;;;;;3.95;61.15;97118.47;5060166;28;20205;-84
2022/02/12 00:49:38;;;;;;;6.80;3.23;;;;;;;3.92;61.04;97116.13;5059954;28;20221;-84
2022/02/12 00:52:05;;;;;;;4.43;3.40;;;;;;;3.94;61.06;97114.28;5060823;28;20194;-84
2022/02/12 00:54:32;;;;;;;4.67;3.47;;;;;;;3.88;61.50;97119.78;5059760;28;20217;-84
2022/02/12 00:56:59;;;;;;;6.97;3.33;;;;;;;3.82;62.18;97125.28;5060182;28;20221;-84
2022/02/12 00:59:27;;;;;;;4.03;3.20;;;;;;;3.81;61.85;97116.81;5060479;28;20209;-84
2022/02/12 01:01:53;;;;;;;3.93;3.30;;;;;;;3.85;62.46;97114.09;5059922;28;20201;-84
2022/02/12 01:04:20;;;;;;;3.33;3.03;;;;;;;3.89;62.19;97115.50;5060751;28;20231;-84
2022/02/12 01:06:47;;;;;;;5.10;3.27;;;;;;;3.97;61.95;97115.84;5051460;28;20285;-84
2022/02/12 01:09:14;;;;;;;4.97;3.37;;;;;;;4.01;62.01;97117.28;5056142;28;20233;-84
2022/02/12 01:11:40;;;;;;;5.17;3.33;;;;;;;4.05;61.36;97111.03;5055882;28;20251;-84
2022/02/12 01:14:07;;;;;;;4.10;3.60;;;;;;;4.07;61.75;97112.59;5056612;28;20241;-84
2022/02/12 01:16:34;;;;;;;4.57;3.27;;;;;;;3.96;61.98;97114.19;5055381;28;20229;-84
2022/02/12 01:19:01;;;;;;;4.10;3.13;;;;;;;3.92;62.23;97128.88;5048301;28;20229;-84
2022/02/12 01:21:27;;;;;;;5.53;3.87;;;;;;;3.80;62.06;97130.47;5042531;28;20202;-84
2022/02/12 01:23:55;;;;;;;3.87;2.97;;;;;;;3.77;61.85;97127.28;5059324;28;20193;-84
2022/02/12 01:26:21;;;;;;;4.47;3.23;;;;;;;3.81;61.94;97119.38;5060000;28;20292;-84
2022/02/12 01:28:49;;;;;;;4.37;3.10;;;;;;;3.85;62.63;97109.78;5059580;28;20221;-84
2022/02/12 01:31:15;;;;;;;4.70;3.63;;;;;;;3.91;62.42;97111.13;5060128;28;20228;-85
2022/02/12 01:33:43;;;;;;;5.37;3.80;;;;;;;3.89;62.32;97110.41;5058858;28;20198;-84
2022/02/12 01:36:10;;;;;;;5.13;4.07;;;;;;;3.81;62.23;97109.19;5059326;28;20751;-84
2022/02/12 01:38:36;;;;;;;4.77;3.47;;;;;;;3.69;62.74;97107.38;5059540;28;20648;-84
2022/02/12 01:41:03;;;;;;;3.90;3.47;;;;;;;3.62;62.52;97108.69;5059714;28;20259;-84
2022/02/12 01:43:31;;;;;;;4.60;3.67;;;;;;;3.63;63.12;97101.88;5058635;28;20193;-84
2022/02/12 01:45:58;;;;;;;3.83;3.07;;;;;;;3.67;62.58;97096.47;5057831;28;20249;-84
2022/02/12 01:48:24;;;;;;;7.00;3.57;;;;;;;3.57;62.90;97099.72;5058677;28;20221;-85
2022/02/12 01:50:52;;;;;;;5.57;3.23;;;;;;;3.62;63.22;97098.50;5057753;28;20197;-84
2022/02/12 01:53:21;;;;;;;4.67;3.80;;;;;;;3.59;62.89;97096.16;5058236;28;20205;-84
2022/02/12 01:55:48;;;;;;;4.83;3.50;;;;;;;3.62;62.68;97088.31;5057321;28;20653;-84
2022/02/12 01:58:16;;;;;;;4.00;3.60;;;;;;;3.52;63.70;97079.63;5058138;28;20251;-83
2022/02/12 02:00:42;;;;;;;5.77;3.60;;;;;;;3.56;63.11;97075.97;5057697;28;20205;-84
2022/02/12 02:03:09;;;;;;;3.70;3.27;;;;;;;3.60;63.09;97076.59;5058291;28;20615;-84
2022/02/12 02:05:35;;;;;;;7.03;3.50;;;;;;;3.66;63.44;97074.47;5057059;28;20217;-84
2022/02/12 02:08:04;;;;;;;4.43;3.60;;;;;;;3.57;63.53;97067.41;5057662;28;20622;-84
2022/02/12 02:10:32;;;;;;;6.27;3.37;;;;;;;3.58;63.21;97066.50;5056880;28;20662;-84
2022/02/12 02:12:58;;;;;;;5.97;3.30;;;;;;;3.57;63.36;97066.59;5057751;28;20219;-84
2022/02/12 02:15:24;;;;;;;4.40;3.70;;;;;;;3.60;63.50;97066.41;5057135;28;20229;-83
2022/02/12 02:17:51;;;;;;;6.30;3.50;;;;;;;3.58;62.99;97068.25;5056895;28;20664;-83
2022/02/12 02:20:17;;;;;;;4.70;3.50;;;;;;;3.62;63.11;97067.13;5057627;28;20603;-83
2022/02/12 02:22:56;;;;;;;4.40;3.40;;;;;;;3.54;63.06;97062.50;5056694;28;20204;-84
2022/02/12 02:25:23;;;;;;;4.23;3.33;;;;;;;3.62;63.13;97064.59;5059851;28;20229;-84
2022/02/12 02:27:50;;;;;;;4.77;3.30;;;;;;;3.64;63.33;97055.94;5061250;28;20202;-84
2022/02/12 02:30:20;;;;;;;4.93;3.60;;;;;;;3.62;63.22;97057.75;5061392;28;20189;-84
2022/02/12 02:32:47;;;;;;;4.50;3.77;;;;;;;3.51;63.53;97056.78;5061871;28;20193;-83
2022/02/12 02:35:16;;;;;;;4.47;3.27;;;;;;;3.52;63.71;97060.97;5060815;28;20255;-84
2022/02/12 02:37:43;;;;;;;7.17;3.30;;;;;;;3.53;63.86;97063.44;5060790;28;20569;-84
2022/02/12 02:40:13;;;;;;;5.23;3.60;;;;;;;3.17;64.90;97063.19;5059567;28;20205;-85
2022/02/12 02:42:43;;;;;;;4.40;3.50;;;;;;;3.22;64.77;97059.44;5061530;28;20240;-83
2022/02/12 02:45:10;;;;;;;5.93;3.50;;;;;;;3.28;64.50;97056.50;5055076;28;20229;-84
2022/02/12 02:47:43;;;;;;;5.63;3.80;;;;;;;3.22;64.23;97056.91;5064300;28;20221;-84
2022/02/12 02:56:02;;;;;;;6.00;3.60;;;;;;;3.37;64.42;97055.13;5062764;28;20666;-84
2022/02/12 02:58:31;;;;;;;4.77;3.63;;;;;;;3.19;65.01;97063.91;5058526;28;20240;-85
2022/02/12 03:00:57;;;;;;;4.37;3.97;;;;;;;3.09;65.13;97056.81;5062791;28;20200;-84
2022/02/12 03:03:24;;;;;;;5.60;3.77;;;;;;;3.18;65.40;97057.19;5063114;28;20261;-84
2022/02/12 03:05:50;;;;;;;3.73;3.33;;;;;;;3.29;64.86;97049.69;5062858;28;20302;-84
2022/02/12 03:08:17;;;;;;;3.87;3.33;;;;;;;3.35;64.83;97050.13;5063062;28;20214;-85
2022/02/12 03:10:45;;;;;;;4.80;3.50;;;;;;;3.33;64.98;97049.41;5061396;28;20198;-84
2022/02/12 03:13:11;;;;;;;4.03;3.63;;;;;;;3.38;64.24;97038.94;5061997;28;20828;-84
2022/02/12 03:15:39;;;;;;;6.33;4.10;;;;;;;3.45;64.42;97035.09;5050510;28;20237;-84
2022/02/12 03:18:06;;;;;;;5.90;3.70;;;;;;;3.46;64.38;97036.75;5062097;28;20225;-84
2022/02/12 03:20:33;;;;;;;4.73;3.60;;;;;;;3.35;64.30;97039.13;5046754;28;20740;-84
2022/02/12 03:22:59;;;;;;;5.27;3.60;;;;;;;3.31;64.25;97040.22;5060061;28;20224;-83
2022/02/12 03:25:26;;;;;;;4.27;3.57;;;;;;;3.35;64.32;97034.03;5060740;28;20226;-84
2022/02/12 03:27:54;;;;;;;4.73;3.60;;;;;;;3.27;64.21;97028.63;5060152;28;20243;-84
2022/02/12 03:30:21;;;;;;;4.10;3.20;;;;;;;3.16;64.57;97025.91;5059985;28;20205;-84
2022/02/12 03:32:47;;;;;;;5.63;3.53;;;;;;;3.18;64.64;97032.53;5060601;28;20263;-83
2022/02/12 03:35:14;;;;;;;5.00;3.70;;;;;;;3.23;64.65;97030.53;5059301;28;20241;-84
2022/02/12 03:37:40;;;;;;;4.60;4.20;;;;;;;3.27;64.56;97026.88;5060529;28;20201;-84
2022/02/12 03:40:08;;;;;;;5.27;3.73;;;;;;;3.26;64.99;97025.25;5060559;28;20221;-84
2022/02/12 03:42:35;;;;;;;5.20;3.97;;;;;;;3.29;65.07;97019.94;5061558;28;20296;-83
2022/02/12 03:45:03;;;;;;;4.93;3.90;;;;;;;3.35;64.92;97017.03;5060037;28;20225;-84
2022/02/12 03:47:29;;;;;;;4.40;3.97;;;;;;;3.40;64.43;97020.13;5061290;28;20221;-84
2022/02/12 03:49:56;;;;;;;6.87;4.00;;;;;;;3.37;64.67;97016.94;5060706;28;20213;-84
2022/02/12 03:52:22;;;;;;;4.50;3.93;;;;;;;3.36;64.87;97021.22;5061747;28;20189;-84
2022/02/12 03:54:49;;;;;;;4.70;3.77;;;;;;;3.30;64.97;97016.50;5060034;28;20225;-83
2022/02/12 03:57:15;;;;;;;4.70;4.10;;;;;;;3.29;65.36;97011.50;5061494;28;20243;-84
2022/02/12 03:59:42;;;;;;;4.37;3.97;;;;;;;3.32;64.77;97007.03;5060682;28;20214;-84
2022/02/12 04:02:09;;;;;;;5.80;4.33;;;;;;;3.31;64.98;97002.03;5061061;28;20202;-84
2022/02/12 04:04:36;;;;;;;5.20;3.97;;;;;;;3.35;64.79;97001.75;5059935;28;20204;-84
2022/02/12 04:07:03;;;;;;;6.90;4.20;;;;;;;3.29;65.13;96999.59;5050166;28;20229;-83
2022/02/12 04:09:30;;;;;;;7.00;4.50;;;;;;;3.25;65.48;96988.00;5043112;28;20333;-85
2022/02/12 04:11:57;;;;;;;5.47;4.30;;;;;;;3.07;66.01;96997.59;5044047;28;20264;-84
2022/02/12 04:14:23;;;;;;;4.97;4.43;;;;;;;3.02;65.84;96994.53;5042980;28;20258;-84
2022/02/12 04:16:50;;;;;;;5.97;4.20;;;;;;;2.90;66.21;96989.34;5043530;28;20221;-84
2022/02/12 04:19:17;;;;;;;6.30;4.87;;;;;;;2.76;67.14;96985.94;5049364;28;20217;-84
2022/02/12 04:21:44;;;;;;;5.37;4.00;;;;;;;2.80;66.27;96989.13;5055695;28;20656;-84
2022/02/12 04:24:10;;;;;;;4.60;3.90;;;;;;;2.82;66.83;96983.94;5055587;28;20240;-84
2022/02/12 04:26:37;;;;;;;5.27;4.20;;;;;;;2.77;67.19;96976.59;5056501;28;20268;-83
2022/02/12 04:29:03;;;;;;;5.80;4.17;;;;;;;2.75;67.26;96973.31;5055193;28;20218;-84
2022/02/12 04:31:30;;;;;;;5.40;4.10;;;;;;;2.78;66.73;96979.03;5048193;28;20198;-84
2022/02/12 04:33:56;;;;;;;4.60;4.10;;;;;;;2.88;66.52;96981.84;5055287;28;20677;-84
2022/02/12 04:36:24;;;;;;;5.90;3.87;;;;;;;2.95;65.82;96978.00;5056152;28;20718;-84
2022/02/12 04:38:50;;;;;;;4.40;3.60;;;;;;;3.02;66.05;96973.34;5057644;28;20210;-84
2022/02/12 04:41:17;;;;;;;7.13;4.17;;;;;;;2.87;66.08;96979.41;5059380;28;20228;-84
2022/02/12 04:43:43;;;;;;;6.30;4.33;;;;;;;2.76;66.73;96975.78;5059485;28;20668;-84
2022/02/12 04:46:10;;;;;;;5.37;4.10;;;;;;;2.88;66.41;96975.94;5059286;28;20229;-84
2022/02/12 04:48:36;;;;;;;6.63;4.03;;;;;;;2.91;66.34;96976.53;5058718;28;20221;-84
2022/02/12 04:51:03;;;;;;;5.47;4.10;;;;;;;2.90;66.19;96977.44;5059372;28;20205;-84
2022/02/12 04:53:30;;;;;;;5.90;4.07;;;;;;;2.95;65.70;96970.34;5058335;28;20198;-83
2022/02/12 04:55:57;;;;;;;4.33;3.93;;;;;;;2.88;65.91;96974.22;5057432;28;20248;-84
2022/02/12 04:58:23;;;;;;;7.60;4.40;;;;;;;2.85;65.94;96964.22;5058549;28;20228;-84
2022/02/12 05:00:50;;;;;;;6.07;3.77;;;;;;;2.90;65.74;96959.66;5058600;28;20197;-85
2022/02/12 05:03:16;;;;;;;5.80;3.93;;;;;;;2.98;65.39;96957.44;5052021;28;20208;-83
2022/02/12 05:05:42;;;;;;;4.23;3.60;;;;;;;2.91;65.41;96958.72;5058534;28;20656;-84
2022/02/12 05:08:09;;;;;;;6.00;4.03;;;;;;;2.85;65.58;96961.69;5063912;28;20239;-84
2022/02/12 05:10:39;;;;;;;6.57;4.00;;;;;;;2.91;65.60;96952.81;5063666;28;20197;-85
2022/02/12 05:13:05;;;;;;;5.83;3.53;;;;;;;2.87;66.23;96952.22;5060600;28;20193;-84
2022/02/12 05:15:32;;;;;;;5.07;4.20;;;;;;;2.92;65.59;96954.47;5060456;28;20221;-84
2022/02/12 05:17:59;;;;;;;4.80;3.50;;;;;;;2.86;65.83;96955.69;5059909;28;20193;-85
2022/02/12 05:20:25;;;;;;;5.33;3.60;;;;;;;2.68;66.57;96957.63;5060371;28;20190;-84
2022/02/12 05:22:52;;;;;;;5.43;4.20;;;;;;;2.50;67.14;96951.13;5054914;28;20194;-84
2022/02/12 05:25:18;;;;;;;5.60;3.83;;;;;;;2.46;67.00;96946.31;5057498;28;20226;-84
2022/02/12 05:27:46;;;;;;;5.43;4.13;;;;;;;2.51;66.91;96944.31;5055371;28;20198;-84
2022/02/12 05:30:13;;;;;;;5.77;3.70;;;;;;;2.46;67.09;96938.69;5056524;28;20778;-84
2022/02/12 05:32:40;;;;;;;6.10;3.80;;;;;;;2.40;67.49;96935.63;5055325;28;20200;-84
2022/02/12 05:35:07;;;;;;;8.17;3.83;;;;;;;2.59;66.61;96931.94;5053607;28;20230;-84
2022/02/12 05:37:33;;;;;;;5.03;3.70;;;;;;;2.71;66.26;96926.91;5055449;28;20193;-84
2022/02/12 05:40:00;;;;;;;5.43;3.47;;;;;;;2.78;66.26;96938.34;5054660;28;20221;-84
2022/02/12 05:42:26;;;;;;;3.80;2.97;;;;;;;2.60;66.51;96933.56;5055344;28;20201;-84
2022/02/12 05:44:54;;;;;;;6.50;3.50;;;;;;;2.73;65.78;96940.34;5052724;28;20216;-84
2022/02/12 05:47:21;;;;;;;4.20;3.23;;;;;;;2.75;66.49;96937.72;5054461;28;20202;-84
2022/02/12 05:49:47;;;;;;;4.83;3.63;;;;;;;2.81;65.83;96933.97;5046614;28;20217;-83
2022/02/12 05:52:13;;;;;;;8.20;3.43;;;;;;;2.86;75.55;96937.88;5041215;28;20201;-82
2022/02/12 05:54:40;;;;;;;5.73;2.93;;;;;;;3.58;92.99;96929.00;5041099;28;20220;-80
2022/02/12 05:57:06;;;;;;;3.30;2.97;;;;;;;3.77;66.82;96931.16;5053667;28;20228;-84
2022/02/12 05:59:33;;;;;;;5.77;3.43;;;;;;;3.64;65.13;96927.78;5058435;28;20220;-83
2022/02/12 06:02:01;;;;;;;8.57;2.93;;;;;;;3.38;65.29;96930.28;5059394;28;20652;-83
2022/02/12 06:04:27;;;;;;;3.93;3.47;;;;;;;3.27;65.41;96926.81;5057671;28;20722;-84
2022/02/12 06:06:54;;;;;;;4.03;3.30;;;;;;;3.04;65.65;96924.00;5060029;28;20225;-84
2022/02/12 06:09:20;;;;;;;4.60;3.20;;;;;;;2.95;66.07;96918.66;5058378;28;20229;-84
2022/02/12 06:11:46;;;;;;;4.13;3.27;;;;;;;2.91;66.04;96929.94;5058036;28;20620;-84
2022/02/12 06:14:13;;;;;;;5.33;3.20;;;;;;;2.81;66.15;96933.97;5057564;28;20683;-84
2022/02/12 06:16:40;;;;;;;4.47;3.00;;;;;;;2.65;66.58;96929.03;5058244;28;20228;-84
2022/02/12 06:19:08;;;;;;;5.90;3.10;;;;;;;2.55;66.94;96928.78;5058126;28;20213;-84
2022/02/12 06:21:34;;;;;;;4.33;3.47;;;;;;;2.52;67.62;96923.88;5059093;28;20193;-83
2022/02/12 06:24:00;;;;;;;4.40;3.60;;;;;;;2.59;66.91;96921.78;5056604;28;20201;-84
2022/02/12 06:26:27;;;;;;;4.23;3.20;;;;;;;2.61;67.03;96917.41;5057594;28;20221;-83
2022/02/12 06:28:53;;;;;;;3.90;2.90;;;;;;;2.64;66.87;96923.13;5058375;28;20221;-83
2022/02/12 06:31:20;;;;;;;4.50;3.20;;;;;;;2.56;66.88;96921.97;5057281;28;20200;-84
2022/02/12 06:33:46;;;;;;;3.93;2.90;;;;;;;2.63;66.92;96918.13;5057706;28;20198;-84
2022/02/12 06:36:14;;;;;;;4.87;3.10;;;;;;;2.44;67.12;96918.47;5057018;28;20221;-84
2022/02/12 06:38:41;;;;;;;4.53;3.67;;;;;;;2.42;67.28;96912.66;5056776;28;20217;-84
2022/02/12 06:41:08;;;;;;;4.10;3.30;;;;;;;2.30;67.97;96913.41;5057226;28;20247;-85
2022/02/12 06:43:34;;;;;;;4.77;3.27;;;;;;;2.23;68.40;96915.50;5057374;28;20221;-84
2022/02/12 06:46:01;;;;;;;6.07;3.57;;;;;;;2.12;69.04;96911.97;5055855;28;20275;-84
2022/02/12 06:48:27;;;;;;;4.43;3.27;;;;;;;2.13;69.27;96909.31;5058273;28;20661;-84
2022/02/12 06:50:55;;;;;;;6.40;3.20;;;;;;;2.18;69.04;96916.66;5057327;28;20684;-84
2022/02/12 06:53:23;;;;;;;3.30;2.70;;;;;;;2.12;69.00;96910.22;5056956;28;20452;-84
2022/02/12 06:55:50;;;;;;;4.60;3.40;;;;;;;2.12;69.16;96914.50;5057180;28;20241;-83
2022/02/12 06:58:17;;;;;;;4.67;3.40;;;;;;;2.09;69.02;96907.88;5056273;28;20248;-84
2022/02/12 07:00:43;;;;;;;4.67;3.40;;;;;;;2.08;69.04;96912.16;5057169;28;20247;-83
2022/02/12 07:03:10;;;;;;;3.30;3.00;;;;;;;2.13;69.36;96913.56;5057608;28;20194;-84
2022/02/12 07:05:36;;;;;;;4.43;3.20;;;;;;;2.47;67.88;96912.38;5057951;28;20267;-83
2022/02/12 07:08:03;;;;;;;3.27;2.90;;;;;;;2.81;66.52;96909.38;5057053;28;20204;-84
2022/02/12 07:10:34;;;;;;;4.63;2.87;;;;;;;3.17;65.45;96906.22;5056455;28;20255;-84
2022/02/12 07:13:00;;;;;;;3.70;2.80;;;;;;;3.17;64.93;96903.66;5059953;28;20223;-83
2022/02/12 07:15:27;;;;;;;5.00;3.27;;;;;;;3.10;64.62;96908.31;5052710;28;20704;-84
2022/02/12 07:17:53;;;;;;;3.40;3.03;;;;;;;3.19;64.44;96906.94;5052646;28;20198;-84
2022/02/12 07:20:20;;;;;;;3.87;3.10;;;;;;;3.41;63.41;96899.53;5060669;28;20204;-85
2022/02/12 07:22:47;;;;;;;4.20;3.13;;;;;;;3.61;63.05;96900.78;5057767;28;20669;-84
2022/02/12 07:25:14;;;;;;;4.37;3.30;;;;;;;3.98;61.74;96904.25;5054564;28;20237;-83
2022/02/12 07:27:43;;;;;;;3.97;3.17;;;;;;;4.31;60.09;96901.13;5051599;28;20440;-84
2022/02/12 07:30:12;;;;;;;3.63;3.10;;;;;;;4.37;59.83;96897.34;5042464;28;20232;-83
2022/02/12 07:32:40;;;;;;;4.07;3.17;;;;;;;4.71;59.47;96898.34;5042700;28;20198;-83
2022/02/12 07:35:10;;;;;;;6.47;3.40;;;;;;;4.97;58.56;96891.41;5041915;28;20225;-84
2022/02/12 07:37:38;;;;;;;5.83;2.80;;;;;;;5.19;56.97;96889.75;5045748;28;20283;-84
2022/02/12 07:40:06;;;;;;;3.30;3.00;;;;;;;5.24;56.88;96884.31;5062637;28;20217;-85
2022/02/12 07:42:33;;;;;;;3.60;3.27;;;;;;;5.20;57.09;96882.88;5059170;28;20197;-83
2022/02/12 07:45:01;;;;;;;5.17;3.70;;;;;;;5.34;57.24;96879.34;5047114;28;20213;-83
2022/02/12 07:47:33;;;;;;;5.33;3.43;;;;;;;5.68;56.43;96880.22;5050193;28;20213;-84
2022/02/12 07:50:01;;;;;;;4.07;2.90;;;;;;;5.67;55.61;96876.84;5060122;28;20225;-84
2022/02/12 07:52:30;;;;;;;6.67;3.67;;;;;;;5.77;55.68;96879.56;5056243;28;20201;-84
2022/02/12 08:01:26;;;;;;;5.47;3.57;;;;;;;5.85;55.58;96875.47;5050843;28;20205;-84
2022/02/12 08:03:53;;;;;;;6.90;4.07;;;;;;;6.23;55.05;96870.03;5041798;28;20574;-84
2022/02/12 08:09:03;;;;;;;5.13;4.30;;;;;;;6.27;54.77;96864.69;5057862;28;20224;-83
2022/02/12 08:11:32;;;;;;;4.23;3.83;;;;;;;6.49;54.31;96867.22;5057969;28;20198;-84
2022/02/12 08:13:59;;;;;;;6.77;3.77;;;;;;;6.29;54.05;96861.09;5056455;28;20292;-84
2022/02/12 08:16:27;;;;;;;4.90;3.80;;;;;;;6.43;54.71;96855.69;5055056;28;20225;-83
2022/02/12 08:18:53;;;;;;;5.53;3.77;;;;;;;6.51;53.89;96863.59;5056273;28;20221;-84
2022/02/12 08:21:19;;;;;;;8.63;4.13;;;;;;;6.51;54.36;96848.25;5054444;28;20197;-83
2022/02/12 08:23:46;;;;;;;5.20;3.90;;;;;;;7.11;53.24;96846.06;5055808;28;20280;-83
2022/02/12 08:26:14;;;;;;;6.70;4.13;;;;;;;6.93;52.91;96841.47;5055247;28;20326;-83
2022/02/12 08:28:41;;;;;;;6.60;3.43;;;;;;;7.23;52.42;96845.06;5054189;28;20216;-84
2022/02/12 08:31:07;;;;;;;10.10;7.53;;;;;;;7.39;52.32;96836.94;5056852;28;20217;-84
2022/02/12 08:33:36;;;;;;;7.43;5.53;;;;;;;7.31;52.57;96831.63;5056408;28;20198;-84
2022/02/12 08:36:02;;;;;;;4.90;3.47;;;;;;;7.18;52.19;96837.75;5055839;28;20256;-84
2022/02/12 08:38:29;;;;;;;5.57;3.60;;;;;;;7.46;52.07;96838.88;5056923;28;20209;-84
2022/02/12 08:40:59;;;;;;;4.60;3.93;;;;;;;7.43;51.25;96833.19;5055258;28;20235;-84
2022/02/12 08:43:31;;;;;;;5.10;3.70;;;;;;;6.82;52.56;96833.03;5054690;28;20205;-84
2022/02/12 08:45:58;;;;;;;5.40;3.80;;;;;;;6.98;52.12;96828.28;5053617;28;20231;-83
2022/02/12 08:48:24;;;;;;;4.90;3.77;;;;;;;7.24;51.83;96823.63;5054029;28;20224;-83
2022/02/12 08:50:52;;;;;;;6.00;4.10;;;;;;;7.59;51.06;96818.16;5054685;28;20295;-84
2022/02/12 08:53:19;;;;;;;4.07;3.67;;;;;;;7.77;50.78;96815.81;5053691;28;20204;-84
2022/02/12 08:55:46;;;;;;;4.40;3.90;;;;;;;7.90;50.43;96809.50;5052021;28;20229;-83
2022/02/12 08:58:12;;;;;;;4.03;3.33;;;;;;;7.55;50.09;96807.34;5052713;28;20213;-84
2022/02/12 09:00:42;;;;;;;5.10;3.50;;;;;;;7.12;50.91;96810.06;5054933;28;20197;-84
2022/02/12 09:03:08;;;;;;;4.53;3.50;;;;;;;7.18;51.12;96801.88;5054462;28;20256;-85
2022/02/12 09:05:35;;;;;;;4.57;3.23;;;;;;;7.44;51.03;96810.00;5054455;28;20236;-85
2022/02/12 09:08:04;;;;;;;4.00;3.10;;;;;;;7.96;50.86;96805.63;5053662;28;20220;-84
2022/02/12 09:10:30;;;;;;;3.40;3.10;;;;;;;7.61;49.32;96806.84;5054002;28;20338;-83
2022/02/12 09:12:57;;;;;;;4.67;3.50;;;;;;;7.75;50.17;96803.13;5054317;28;20205;-84
2022/02/12 09:15:24;;;;;;;5.17;3.60;;;;;;;7.72;50.45;96794.88;5054314;28;20731;-83
2022/02/12 09:17:50;;;;;;;4.17;3.43;;;;;;;7.41;50.26;96805.13;5055072;28;20213;-84
2022/02/12 09:20:17;;;;;;;5.10;3.90;;;;;;;7.30;50.35;96794.16;5055364;28;20233;-84
2022/02/12 09:22:43;;;;;;;4.83;3.77;;;;;;;7.52;50.46;96791.41;5055464;28;20221;-83
2022/02/12 09:25:12;;;;;;;4.10;3.67;;;;;;;7.19;50.72;96787.31;5054664;28;20259;-86
2022/02/12 09:27:39;;;;;;;5.40;3.60;;;;;;;7.09;51.08;96794.16;5055128;28;20198;-84
2022/02/12 09:30:06;;;;;;;4.33;3.50;;;;;;;7.33;51.38;96793.88;5055736;28;20271;-84
2022/02/12 09:32:35;;;;;;;5.00;3.70;;;;;;;7.55;50.31;96788.59;5054973;28;20193;-85
2022/02/12 09:35:01;;;;;;;6.27;3.63;;;;;;;7.56;50.12;96782.53;5052343;28;20266;-85
2022/02/12 09:37:28;;;;;;;3.67;3.10;;;;;;;7.14;50.89;96776.63;5055282;28;20214;-85
2022/02/12 09:39:54;;;;;;;3.53;3.23;;;;;;;7.04;51.24;96770.66;5054712;28;20274;-85
2022/02/12 09:42:24;;;;;;;3.93;3.07;;;;;;;7.14;51.61;96776.63;5054524;28;20217;-85
2022/02/12 09:44:50;;;;;;;5.90;3.40;;;;;;;7.21;51.03;96764.97;5053991;28;20216;-84
2022/02/12 09:47:48;;;;;;;8.40;3.83;;;;;;;7.37;51.00;96756.81;5055993;28;20201;-84
2022/02/12 09:50:17;;;;;;;37.10;26.60;;;;;;;7.79;50.47;96765.22;5055748;28;20284;-85
2022/02/12 09:52:48;;;;;;;6.13;5.07;;;;;;;7.68;49.86;96758.44;5055814;28;20198;-84
2022/02/12 09:55:15;;;;;;;8.57;4.07;;;;;;;7.93;49.22;96757.16;5054689;28;20236;-84
2022/02/12 09:57:43;;;;;;;5.23;3.10;;;;;;;7.71;49.02;96762.47;5054482;28;20224;-85
2022/02/12 10:00:14;;;;;;;4.50;3.30;;;;;;;7.78;49.40;96759.28;5053075;28;20689;-85
2022/02/12 10:02:40;;;;;;;3.43;2.93;;;;;;;7.92;49.67;96758.91;5049235;28;20288;-85
2022/02/12 10:05:25;;;;;;;4.33;2.90;;;;;;;7.85;48.43;96762.16;5055943;28;21408;-85
2022/02/12 10:08:08;;;;;;;3.53;3.23;;;;;;;7.94;48.97;96763.91;5051699;28;20223;-84
2022/02/12 10:10:36;;;;;;;3.10;2.80;;;;;;;8.22;47.61;96754.66;5054041;28;20193;-84
2022/02/12 10:13:12;;;;;;;3.67;2.67;;;;;;;8.20;46.77;96746.28;5059036;28;20202;-84
2022/02/12 10:15:40;;;;;;;3.43;2.33;;;;;;;8.53;46.81;96740.78;5057112;28;20225;-85
2022/02/12 10:18:07;;;;;;;2.93;2.40;;;;;;;8.00;46.53;96742.88;5058948;28;20209;-84
2022/02/12 10:20:36;;;;;;;3.10;2.27;;;;;;;7.62;46.50;96749.50;5058352;28;20198;-85
2022/02/12 10:23:08;;;;;;;3.83;2.40;;;;;;;7.74;46.07;96741.72;5058312;28;20202;-84
2022/02/12 10:25:36;;;;;;;2.00;1.83;;;;;;;7.64;45.59;96744.25;5058050;28;20221;-85
2022/02/12 10:28:04;;;;;;;2.20;2.00;;;;;;;7.73;44.96;96743.47;5057640;28;20220;-85
2022/02/12 10:30:32;;;;;;;3.13;2.10;;;;;;;7.48;45.48;96728.56;5058613;28;20209;-83
2022/02/12 10:33:00;;;;;;;5.10;4.20;;;;;;;7.60;45.33;96730.88;5058389;28;20193;-85
2022/02/12 10:35:28;;;;;;;8.77;4.90;;;;;;;7.58;44.30;96725.06;5050678;28;20225;-84
2022/02/12 10:37:59;;;;;;;1.93;1.83;;;;;;;7.71;44.44;96726.59;5051657;28;20209;-84
2022/02/12 10:40:26;;;;;;;3.50;2.07;;;;;;;8.15;44.14;96723.59;5058139;28;20205;-83
2022/02/12 10:42:53;;;;;;;2.17;1.90;;;;;;;8.09;43.25;96715.59;5058135;28;20202;-84
2022/02/12 10:45:20;;;;;;;3.20;2.10;;;;;;;7.85;44.03;96706.53;5039930;28;20823;-84
2022/02/12 10:47:49;;;;;;;4.20;1.97;;;;;;;7.75;43.69;96704.88;5047562;28;20304;-83
2022/02/12 10:50:17;;;;;;;3.37;1.77;;;;;;;7.83;43.05;96697.38;5058463;28;20221;-84
2022/02/12 10:52:45;;;;;;;2.00;1.60;;;;;;;7.86;43.34;96699.66;5058765;28;20232;-84
2022/02/12 10:55:29;;;;;;;2.17;1.77;;;;;;;7.90;43.63;96689.00;5058197;28;20248;-84
2022/02/12 10:57:56;;;;;;;1.90;1.60;;;;;;;7.87;43.53;96684.16;5039012;28;20233;-84
2022/02/12 11:00:25;;;;;;;2.60;2.00;;;;;;;7.89;43.29;96678.88;5039636;28;20210;-83
2022/02/12 11:02:54;;;;;;;2.40;2.13;;;;;;;7.74;43.17;96680.19;5058638;28;20193;-84
2022/02/12 11:05:22;;;;;;;2.93;2.03;;;;;;;7.74;42.92;96669.94;5058114;28;20225;-83
2022/02/12 11:07:48;;;;;;;1.80;1.70;;;;;;;7.71;43.15;96670.19;5060380;28;20216;-83
2022/02/12 11:10:15;;;;;;;2.33;2.00;;;;;;;7.93;43.25;96667.41;5059392;28;20213;-84
2022/02/12 11:12:42;;;;;;;2.03;1.83;;;;;;;7.60;43.61;96660.88;5055083;28;20219;-84
2022/02/12 11:15:09;;;;;;;3.67;2.10;;;;;;;7.51;44.19;96652.22;5040223;28;20778;-83
2022/02/12 11:17:37;;;;;;;3.60;2.17;;;;;;;7.31;44.70;96653.13;5047809;28;20248;-83
2022/02/12 11:20:08;;;;;;;2.20;2.00;;;;;;;7.44;45.89;96648.56;5056915;28;20217;-84
2022/02/12 11:22:35;;;;;;;2.43;1.90;;;;;;;7.54;45.23;96648.56;5057984;28;20208;-84
2022/02/12 11:25:02;;;;;;;2.03;1.80;;;;;;;7.82;44.91;96642.72;5053740;28;20229;-84
2022/02/12 11:27:30;;;;;;;2.10;1.60;;;;;;;7.85;43.23;96631.38;5057030;28;20197;-84
2022/02/12 11:30:15;;;;;;;3.67;1.80;;;;;;;7.92;42.22;96630.69;5046387;28;20221;-84
2022/02/12 11:32:42;;;;;;;1.60;1.50;;;;;;;7.78;41.11;96623.41;5061641;28;20198;-84
2022/02/12 11:35:23;;;;;;;2.20;1.53;;;;;;;7.66;42.39;96633.91;5062141;28;20233;-84
2022/02/12 11:37:50;;;;;;;2.37;1.70;;;;;;;7.54;41.87;96633.19;5062550;28;20232;-84
2022/02/12 11:40:18;;;;;;;3.03;2.60;;;;;;;7.67;41.75;96633.78;5062079;28;20220;-84
2022/02/12 11:42:47;;;;;;;1.60;1.50;;;;;;;7.45;42.83;96621.19;5061919;28;20212;-85
2022/02/12 11:45:29;;;;;;;2.20;1.70;;;;;;;7.76;42.42;96609.09;5053462;28;20769;-84
2022/02/12 11:48:19;;;;;;;1.83;1.70;;;;;;;8.00;41.68;96616.41;5056524;28;20205;-84
2022/02/12 11:50:51;;;;;;;1.70;1.60;;;;;;;7.61;41.60;96599.25;5060651;28;20549;-84
2022/02/12 11:53:48;;;;;;;2.27;1.50;;;;;;;7.46;41.88;96604.88;5062088;28;20272;-85
2022/02/12 11:56:51;;;;;;;2.10;1.80;;;;;;;7.53;42.08;96600.81;5026515;28;20221;-84
2022/02/12 11:59:20;;;;;;;3.43;1.90;;;;;;;7.55;42.00;96594.63;5061485;28;20213;-84